sensor_id;sensor_type;location;lat;lon;timestamp;P1;durP1;ratioP1;P2;durP2;ratioP2
74749;SDS011;63269;53.330;-6.288;2023-02-28T00:01:23;3.47;;;1.05;;
74749;SDS011;63269;53.330;-6.288;2023-02-28T00:03:49;1.92;;;1.02;;
74749;SDS011;63269;53.330;-6.288;2023-02-28T00:06:14;3.60;;;1.08;;
74749;SDS011;63269;53.330;-6.288;2023-02-28T00:08:40;2.85;;;1.13;;
74749;SDS011;63269;53.330;-6.288;2023-02-28T00:11:06;5.00;;;1.65;;
74749;SDS011;63269;53.330;-6.288;2023-02-28T00:13:37;5.03;;;1.25;;
74749;SDS011;63269;53.330;-6.288;2023-02-28T00:16:08;3.20;;;1.42;;
74749;SDS011;63269;53.330;-6.288;2023-02-28T00:18:36;2.67;;;1.38;;
74749;SDS011;63269;53.330;-6.288;2023-02-28T00:21:02;1.95;;;1.20;;
74749;SDS011;63269;53.330;-6.288;2023-02-28T00:23:29;2.65;;;0.98;;
74749;SDS011;63269;53.330;-6.288;2023-02-28T00:25:54;3.97;;;1.10;;
74749;SDS011;63269;53.330;-6.288;2023-02-28T00:28:20;3.65;;;1.00;;
74749;SDS011;63269;53.330;-6.288;2023-02-28T00:30:46;2.65;;;1.02;;
74749;SDS011;63269;53.330;-6.288;2023-02-28T00:33:11;3.63;;;1.15;;
74749;SDS011;63269;53.330;-6.288;2023-02-28T00:35:37;2.08;;;1.05;;
74749;SDS011;63269;53.330;-6.288;2023-02-28T00:38:02;4.13;;;1.10;;
74749;SDS011;63269;53.330;-6.288;2023-02-28T00:40:28;2.03;;;0.90;;
74749;SDS011;63269;53.330;-6.288;2023-02-28T00:42:54;2.05;;;0.80;;
74749;SDS011;63269;53.330;-6.288;2023-02-28T00:45:19;2.92;;;1.10;;
74749;SDS011;63269;53.330;-6.288;2023-02-28T00:47:45;2.22;;;0.70;;
74749;SDS011;63269;53.330;-6.288;2023-02-28T00:50:11;3.08;;;1.00;;
74749;SDS011;63269;53.330;-6.288;2023-02-28T00:52:37;3.53;;;1.20;;
74749;SDS011;63269;53.330;-6.288;2023-02-28T00:55:02;4.20;;;1.52;;
74749;SDS011;63269;53.330;-6.288;2023-02-28T00:57:28;2.85;;;1.20;;
74749;SDS011;63269;53.330;-6.288;2023-02-28T00:59:53;2.28;;;1.10;;
74749;SDS011;63269;53.330;-6.288;2023-02-28T01:02:19;2.90;;;0.80;;
74749;SDS011;63269;53.330;-6.288;2023-02-28T01:04:46;2.65;;;1.10;;
74749;SDS011;63269;53.330;-6.288;2023-02-28T01:07:11;3.50;;;0.95;;
74749;SDS011;63269;53.330;-6.288;2023-02-28T01:09:37;1.27;;;0.60;;
74749;SDS011;63269;53.330;-6.288;2023-02-28T01:12:02;3.97;;;0.80;;
74749;SDS011;63269;53.330;-6.288;2023-02-28T01:14:28;2.53;;;0.90;;
74749;SDS011;63269;53.330;-6.288;2023-02-28T01:16:53;2.40;;;1.00;;
74749;SDS011;63269;53.330;-6.288;2023-02-28T01:19:19;3.63;;;1.02;;
74749;SDS011;63269;53.330;-6.288;2023-02-28T01:21:44;1.88;;;0.88;;
74749;SDS011;63269;53.330;-6.288;2023-02-28T01:24:09;2.70;;;1.20;;
74749;SDS011;63269;53.330;-6.288;2023-02-28T01:26:35;2.45;;;1.10;;
74749;SDS011;63269;53.330;-6.288;2023-02-28T01:29:00;4.07;;;0.93;;
74749;SDS011;63269;53.330;-6.288;2023-02-28T01:31:26;2.90;;;0.80;;
74749;SDS011;63269;53.330;-6.288;2023-02-28T01:33:51;2.15;;;1.10;;
74749;SDS011;63269;53.330;-6.288;2023-02-28T01:36:19;1.50;;;0.60;;
74749;SDS011;63269;53.330;-6.288;2023-02-28T01:38:46;2.33;;;0.80;;
74749;SDS011;63269;53.330;-6.288;2023-02-28T01:41:28;3.30;;;1.00;;
74749;SDS011;63269;53.330;-6.288;2023-02-28T01:43:59;3.55;;;1.08;;
74749;SDS011;63269;53.330;-6.288;2023-02-28T01:46:28;1.80;;;0.90;;
74749;SDS011;63269;53.330;-6.288;2023-02-28T01:48:57;1.65;;;0.80;;
74749;SDS011;63269;53.330;-6.288;2023-02-28T01:51:29;4.07;;;0.90;;
74749;SDS011;63269;53.330;-6.288;2023-02-28T01:54:04;2.22;;;0.60;;
74749;SDS011;63269;53.330;-6.288;2023-02-28T01:56:38;3.00;;;0.90;;
74749;SDS011;63269;53.330;-6.288;2023-02-28T01:59:08;2.28;;;0.80;;
74749;SDS011;63269;53.330;-6.288;2023-02-28T02:01:34;2.58;;;1.10;;
74749;SDS011;63269;53.330;-6.288;2023-02-28T02:04:01;2.42;;;0.80;;
74749;SDS011;63269;53.330;-6.288;2023-02-28T02:06:29;2.55;;;0.85;;
74749;SDS011;63269;53.330;-6.288;2023-02-28T02:08:58;2.08;;;0.60;;
74749;SDS011;63269;53.330;-6.288;2023-02-28T02:11:24;3.47;;;0.73;;
74749;SDS011;63269;53.330;-6.288;2023-02-28T02:25:25;4.75;;;1.13;;
74749;SDS011;63269;53.330;-6.288;2023-02-28T02:30:37;1.23;;;0.60;;
74749;SDS011;63269;53.330;-6.288;2023-02-28T02:38:33;2.15;;;0.80;;
74749;SDS011;63269;53.330;-6.288;2023-02-28T02:46:34;2.42;;;0.85;;
74749;SDS011;63269;53.330;-6.288;2023-02-28T02:49:07;1.42;;;0.50;;
74749;SDS011;63269;53.330;-6.288;2023-02-28T02:51:37;2.70;;;1.05;;
74749;SDS011;63269;53.330;-6.288;2023-02-28T02:54:08;2.22;;;0.75;;
74749;SDS011;63269;53.330;-6.288;2023-02-28T02:56:40;1.20;;;0.73;;
74749;SDS011;63269;53.330;-6.288;2023-02-28T02:59:09;2.45;;;0.85;;
74749;SDS011;63269;53.330;-6.288;2023-02-28T03:01:38;1.95;;;0.85;;
74749;SDS011;63269;53.330;-6.288;2023-02-28T03:04:09;2.58;;;0.70;;
74749;SDS011;63269;53.330;-6.288;2023-02-28T03:06:37;1.77;;;0.60;;
74749;SDS011;63269;53.330;-6.288;2023-02-28T03:09:03;3.47;;;0.80;;
74749;SDS011;63269;53.330;-6.288;2023-02-28T03:11:29;1.92;;;0.63;;
74749;SDS011;63269;53.330;-6.288;2023-02-28T03:23:50;2.55;;;0.70;;
74749;SDS011;63269;53.330;-6.288;2023-02-28T03:26:20;1.85;;;0.60;;
74749;SDS011;63269;53.330;-6.288;2023-02-28T03:31:48;2.80;;;0.80;;
74749;SDS011;63269;53.330;-6.288;2023-02-28T03:34:26;1.05;;;0.40;;
74749;SDS011;63269;53.330;-6.288;2023-02-28T03:37:01;1.30;;;0.40;;
74749;SDS011;63269;53.330;-6.288;2023-02-28T03:39:40;1.63;;;0.43;;
74749;SDS011;63269;53.330;-6.288;2023-02-28T03:42:09;1.77;;;0.65;;
74749;SDS011;63269;53.330;-6.288;2023-02-28T03:47:11;2.33;;;0.70;;
74749;SDS011;63269;53.330;-6.288;2023-02-28T03:52:30;1.08;;;0.43;;
74749;SDS011;63269;53.330;-6.288;2023-02-28T03:55:00;2.47;;;0.60;;
74749;SDS011;63269;53.330;-6.288;2023-02-28T03:57:34;1.80;;;0.43;;
74749;SDS011;63269;53.330;-6.288;2023-02-28T04:00:19;1.58;;;0.65;;
74749;SDS011;63269;53.330;-6.288;2023-02-28T04:02:53;2.25;;;0.55;;
74749;SDS011;63269;53.330;-6.288;2023-02-28T04:05:19;1.50;;;0.52;;
74749;SDS011;63269;53.330;-6.288;2023-02-28T04:07:46;2.20;;;0.85;;
74749;SDS011;63269;53.330;-6.288;2023-02-28T04:10:11;2.30;;;0.70;;
74749;SDS011;63269;53.330;-6.288;2023-02-28T04:12:38;2.60;;;0.80;;
74749;SDS011;63269;53.330;-6.288;2023-02-28T04:15:03;1.60;;;0.63;;
74749;SDS011;63269;53.330;-6.288;2023-02-28T04:17:29;2.40;;;1.00;;
74749;SDS011;63269;53.330;-6.288;2023-02-28T04:19:55;4.30;;;0.60;;
74749;SDS011;63269;53.330;-6.288;2023-02-28T04:22:21;1.58;;;0.50;;
74749;SDS011;63269;53.330;-6.288;2023-02-28T04:24:47;3.03;;;0.77;;
74749;SDS011;63269;53.330;-6.288;2023-02-28T04:27:12;2.92;;;0.60;;
74749;SDS011;63269;53.330;-6.288;2023-02-28T04:29:37;2.35;;;0.80;;
74749;SDS011;63269;53.330;-6.288;2023-02-28T04:32:03;2.88;;;0.90;;
74749;SDS011;63269;53.330;-6.288;2023-02-28T04:34:30;2.35;;;0.52;;
74749;SDS011;63269;53.330;-6.288;2023-02-28T04:36:56;1.10;;;0.40;;
74749;SDS011;63269;53.330;-6.288;2023-02-28T04:39:23;3.20;;;0.80;;
74749;SDS011;63269;53.330;-6.288;2023-02-28T04:41:49;2.45;;;0.50;;
74749;SDS011;63269;53.330;-6.288;2023-02-28T04:44:15;5.57;;;1.25;;
74749;SDS011;63269;53.330;-6.288;2023-02-28T04:46:41;2.65;;;0.80;;
74749;SDS011;63269;53.330;-6.288;2023-02-28T04:49:09;2.53;;;0.70;;
74749;SDS011;63269;53.330;-6.288;2023-02-28T04:51:36;3.25;;;0.80;;
74749;SDS011;63269;53.330;-6.288;2023-02-28T04:54:02;1.35;;;0.60;;
74749;SDS011;63269;53.330;-6.288;2023-02-28T04:56:27;3.45;;;0.82;;
74749;SDS011;63269;53.330;-6.288;2023-02-28T04:58:53;2.10;;;0.60;;
74749;SDS011;63269;53.330;-6.288;2023-02-28T05:01:26;1.52;;;0.65;;
74749;SDS011;63269;53.330;-6.288;2023-02-28T05:03:56;2.67;;;0.60;;
74749;SDS011;63269;53.330;-6.288;2023-02-28T05:06:23;1.23;;;0.47;;
74749;SDS011;63269;53.330;-6.288;2023-02-28T05:08:51;3.08;;;0.68;;
74749;SDS011;63269;53.330;-6.288;2023-02-28T05:11:18;2.13;;;0.77;;
74749;SDS011;63269;53.330;-6.288;2023-02-28T05:13:46;1.95;;;0.38;;
74749;SDS011;63269;53.330;-6.288;2023-02-28T05:16:12;1.77;;;0.57;;
74749;SDS011;63269;53.330;-6.288;2023-02-28T05:18:37;2.17;;;0.55;;
74749;SDS011;63269;53.330;-6.288;2023-02-28T05:21:03;2.50;;;0.50;;
74749;SDS011;63269;53.330;-6.288;2023-02-28T05:23:29;2.67;;;0.85;;
74749;SDS011;63269;53.330;-6.288;2023-02-28T05:25:54;2.25;;;0.73;;
74749;SDS011;63269;53.330;-6.288;2023-02-28T05:28:20;1.70;;;0.70;;
74749;SDS011;63269;53.330;-6.288;2023-02-28T05:30:46;1.73;;;0.60;;
74749;SDS011;63269;53.330;-6.288;2023-02-28T05:33:11;2.10;;;0.68;;
74749;SDS011;63269;53.330;-6.288;2023-02-28T05:35:41;2.42;;;0.65;;
74749;SDS011;63269;53.330;-6.288;2023-02-28T05:38:07;3.20;;;0.60;;
74749;SDS011;63269;53.330;-6.288;2023-02-28T05:40:33;1.48;;;0.63;;
74749;SDS011;63269;53.330;-6.288;2023-02-28T05:42:59;1.33;;;0.40;;
74749;SDS011;63269;53.330;-6.288;2023-02-28T05:45:24;1.83;;;0.43;;
74749;SDS011;63269;53.330;-6.288;2023-02-28T05:47:53;3.80;;;0.60;;
74749;SDS011;63269;53.330;-6.288;2023-02-28T05:50:18;2.22;;;0.40;;
74749;SDS011;63269;53.330;-6.288;2023-02-28T05:52:44;1.92;;;0.47;;
74749;SDS011;63269;53.330;-6.288;2023-02-28T05:55:09;2.38;;;0.95;;
74749;SDS011;63269;53.330;-6.288;2023-02-28T05:57:35;0.98;;;0.60;;
74749;SDS011;63269;53.330;-6.288;2023-02-28T06:00:00;2.15;;;0.43;;
74749;SDS011;63269;53.330;-6.288;2023-02-28T06:02:26;1.50;;;0.40;;
74749;SDS011;63269;53.330;-6.288;2023-02-28T06:04:51;2.63;;;0.60;;
74749;SDS011;63269;53.330;-6.288;2023-02-28T06:07:17;1.15;;;0.30;;
74749;SDS011;63269;53.330;-6.288;2023-02-28T06:09:42;2.03;;;0.73;;
74749;SDS011;63269;53.330;-6.288;2023-02-28T06:12:08;1.65;;;0.50;;
74749;SDS011;63269;53.330;-6.288;2023-02-28T06:14:35;1.70;;;0.50;;
74749;SDS011;63269;53.330;-6.288;2023-02-28T06:17:01;2.42;;;0.60;;
74749;SDS011;63269;53.330;-6.288;2023-02-28T06:19:27;2.65;;;0.50;;
74749;SDS011;63269;53.330;-6.288;2023-02-28T06:21:54;1.60;;;0.52;;
74749;SDS011;63269;53.330;-6.288;2023-02-28T06:24:20;1.08;;;0.40;;
74749;SDS011;63269;53.330;-6.288;2023-02-28T06:26:46;1.30;;;0.40;;
74749;SDS011;63269;53.330;-6.288;2023-02-28T06:29:12;1.25;;;0.40;;
74749;SDS011;63269;53.330;-6.288;2023-02-28T06:31:43;2.08;;;0.52;;
74749;SDS011;63269;53.330;-6.288;2023-02-28T06:34:09;1.55;;;0.63;;
74749;SDS011;63269;53.330;-6.288;2023-02-28T06:36:37;1.27;;;0.47;;
74749;SDS011;63269;53.330;-6.288;2023-02-28T06:39:03;2.58;;;0.60;;
74749;SDS011;63269;53.330;-6.288;2023-02-28T06:41:28;2.10;;;0.95;;
74749;SDS011;63269;53.330;-6.288;2023-02-28T06:43:54;1.90;;;0.90;;
74749;SDS011;63269;53.330;-6.288;2023-02-28T06:46:19;1.20;;;0.85;;
74749;SDS011;63269;53.330;-6.288;2023-02-28T06:48:45;1.17;;;0.38;;
74749;SDS011;63269;53.330;-6.288;2023-02-28T06:51:13;2.47;;;1.20;;
74749;SDS011;63269;53.330;-6.288;2023-02-28T06:53:43;1.60;;;0.47;;
74749;SDS011;63269;53.330;-6.288;2023-02-28T06:56:10;1.23;;;0.45;;
74749;SDS011;63269;53.330;-6.288;2023-02-28T06:58:37;1.33;;;0.70;;
74749;SDS011;63269;53.330;-6.288;2023-02-28T07:01:04;1.15;;;0.65;;
74749;SDS011;63269;53.330;-6.288;2023-02-28T07:03:30;2.47;;;0.60;;
74749;SDS011;63269;53.330;-6.288;2023-02-28T07:05:56;1.38;;;0.60;;
74749;SDS011;63269;53.330;-6.288;2023-02-28T07:08:22;1.15;;;0.43;;
74749;SDS011;63269;53.330;-6.288;2023-02-28T07:10:51;1.63;;;0.60;;
74749;SDS011;63269;53.330;-6.288;2023-02-28T07:13:17;1.15;;;0.40;;
74749;SDS011;63269;53.330;-6.288;2023-02-28T07:15:42;1.98;;;0.50;;
74749;SDS011;63269;53.330;-6.288;2023-02-28T07:18:08;1.88;;;0.60;;
74749;SDS011;63269;53.330;-6.288;2023-02-28T07:20:33;1.95;;;0.60;;
74749;SDS011;63269;53.330;-6.288;2023-02-28T07:22:58;1.75;;;0.50;;
74749;SDS011;63269;53.330;-6.288;2023-02-28T07:25:27;1.58;;;0.50;;
74749;SDS011;63269;53.330;-6.288;2023-02-28T07:27:54;1.13;;;0.40;;
74749;SDS011;63269;53.330;-6.288;2023-02-28T07:30:20;1.83;;;0.50;;
74749;SDS011;63269;53.330;-6.288;2023-02-28T07:32:45;3.67;;;0.85;;
74749;SDS011;63269;53.330;-6.288;2023-02-28T07:35:11;1.42;;;0.50;;
74749;SDS011;63269;53.330;-6.288;2023-02-28T07:37:37;1.70;;;0.60;;
74749;SDS011;63269;53.330;-6.288;2023-02-28T07:40:06;2.63;;;0.88;;
74749;SDS011;63269;53.330;-6.288;2023-02-28T07:42:36;3.90;;;0.70;;
74749;SDS011;63269;53.330;-6.288;2023-02-28T07:45:02;2.20;;;0.50;;
74749;SDS011;63269;53.330;-6.288;2023-02-28T07:47:29;1.83;;;0.60;;
74749;SDS011;63269;53.330;-6.288;2023-02-28T07:49:55;1.83;;;0.82;;
74749;SDS011;63269;53.330;-6.288;2023-02-28T07:52:20;2.38;;;0.73;;
74749;SDS011;63269;53.330;-6.288;2023-02-28T07:54:45;3.60;;;1.15;;
74749;SDS011;63269;53.330;-6.288;2023-02-28T07:57:11;2.95;;;0.88;;
74749;SDS011;63269;53.330;-6.288;2023-02-28T07:59:36;2.55;;;0.80;;
74749;SDS011;63269;53.330;-6.288;2023-02-28T08:02:02;5.45;;;2.90;;
74749;SDS011;63269;53.330;-6.288;2023-02-28T08:04:27;87.45;;;70.95;;
74749;SDS011;63269;53.330;-6.288;2023-02-28T08:06:54;97.18;;;75.47;;
74749;SDS011;63269;53.330;-6.288;2023-02-28T08:09:21;131.15;;;81.53;;
74749;SDS011;63269;53.330;-6.288;2023-02-28T08:11:47;104.72;;;68.45;;
74749;SDS011;63269;53.330;-6.288;2023-02-28T08:14:12;256.95;;;206.68;;
74749;SDS011;63269;53.330;-6.288;2023-02-28T08:16:37;133.27;;;94.57;;
74749;SDS011;63269;53.330;-6.288;2023-02-28T08:19:03;146.20;;;119.75;;
74749;SDS011;63269;53.330;-6.288;2023-02-28T08:21:29;154.52;;;137.52;;
74749;SDS011;63269;53.330;-6.288;2023-02-28T08:23:54;129.27;;;103.35;;
74749;SDS011;63269;53.330;-6.288;2023-02-28T08:26:21;121.57;;;90.53;;
74749;SDS011;63269;53.330;-6.288;2023-02-28T08:28:47;113.18;;;86.70;;
74749;SDS011;63269;53.330;-6.288;2023-02-28T08:31:13;108.28;;;80.60;;
74749;SDS011;63269;53.330;-6.288;2023-02-28T08:33:40;103.90;;;78.93;;
74749;SDS011;63269;53.330;-6.288;2023-02-28T08:36:07;96.85;;;74.18;;
74749;SDS011;63269;53.330;-6.288;2023-02-28T08:38:34;96.90;;;71.10;;
74749;SDS011;63269;53.330;-6.288;2023-02-28T08:41:01;89.35;;;66.53;;
74749;SDS011;63269;53.330;-6.288;2023-02-28T08:43:30;82.53;;;61.30;;
74749;SDS011;63269;53.330;-6.288;2023-02-28T08:45:56;77.30;;;57.08;;
74749;SDS011;63269;53.330;-6.288;2023-02-28T08:48:22;82.60;;;59.10;;
74749;SDS011;63269;53.330;-6.288;2023-02-28T08:50:55;75.05;;;52.85;;
74749;SDS011;63269;53.330;-6.288;2023-02-28T08:53:24;64.60;;;46.47;;
74749;SDS011;63269;53.330;-6.288;2023-02-28T08:55:57;56.65;;;39.38;;
74749;SDS011;63269;53.330;-6.288;2023-02-28T08:58:22;45.95;;;33.60;;
74749;SDS011;63269;53.330;-6.288;2023-02-28T09:00:48;41.15;;;29.05;;
74749;SDS011;63269;53.330;-6.288;2023-02-28T09:03:13;38.88;;;25.58;;
74749;SDS011;63269;53.330;-6.288;2023-02-28T09:05:39;32.33;;;22.48;;
74749;SDS011;63269;53.330;-6.288;2023-02-28T09:08:04;24.80;;;17.17;;
74749;SDS011;63269;53.330;-6.288;2023-02-28T09:10:30;25.85;;;16.27;;
74749;SDS011;63269;53.330;-6.288;2023-02-28T09:12:55;22.83;;;15.02;;
74749;SDS011;63269;53.330;-6.288;2023-02-28T09:15:20;16.27;;;11.13;;
74749;SDS011;63269;53.330;-6.288;2023-02-28T09:17:46;12.70;;;9.18;;
74749;SDS011;63269;53.330;-6.288;2023-02-28T09:20:11;15.68;;;9.15;;
74749;SDS011;63269;53.330;-6.288;2023-02-28T09:22:37;16.05;;;7.97;;
74749;SDS011;63269;53.330;-6.288;2023-02-28T09:25:02;14.00;;;8.25;;
74749;SDS011;63269;53.330;-6.288;2023-02-28T09:27:28;15.15;;;7.88;;
74749;SDS011;63269;53.330;-6.288;2023-02-28T09:29:53;13.70;;;8.35;;
74749;SDS011;63269;53.330;-6.288;2023-02-28T09:32:19;13.20;;;7.45;;
74749;SDS011;63269;53.330;-6.288;2023-02-28T09:34:44;12.02;;;7.18;;
74749;SDS011;63269;53.330;-6.288;2023-02-28T09:37:09;11.02;;;7.22;;
74749;SDS011;63269;53.330;-6.288;2023-02-28T09:39:35;11.95;;;7.20;;
74749;SDS011;63269;53.330;-6.288;2023-02-28T09:42:00;8.63;;;5.85;;
74749;SDS011;63269;53.330;-6.288;2023-02-28T09:44:37;10.48;;;5.50;;
74749;SDS011;63269;53.330;-6.288;2023-02-28T09:49:46;8.93;;;4.75;;
74749;SDS011;63269;53.330;-6.288;2023-02-28T09:52:23;12.50;;;5.82;;
74749;SDS011;63269;53.330;-6.288;2023-02-28T09:54:55;7.78;;;4.22;;
74749;SDS011;63269;53.330;-6.288;2023-02-28T09:57:39;7.80;;;4.47;;
74749;SDS011;63269;53.330;-6.288;2023-02-28T10:03:35;9.02;;;3.97;;
74749;SDS011;63269;53.330;-6.288;2023-02-28T10:08:14;5.82;;;3.40;;
74749;SDS011;63269;53.330;-6.288;2023-02-28T10:10:44;9.82;;;4.53;;
74749;SDS011;63269;53.330;-6.288;2023-02-28T10:16:59;4.97;;;3.05;;
74749;SDS011;63269;53.330;-6.288;2023-02-28T10:21:38;5.22;;;2.95;;
74749;SDS011;63269;53.330;-6.288;2023-02-28T10:26:53;5.90;;;3.05;;
74749;SDS011;63269;53.330;-6.288;2023-02-28T10:29:25;5.95;;;2.80;;
74749;SDS011;63269;53.330;-6.288;2023-02-28T10:31:51;3.95;;;2.30;;
74749;SDS011;63269;53.330;-6.288;2023-02-28T10:34:17;3.95;;;2.30;;
74749;SDS011;63269;53.330;-6.288;2023-02-28T10:36:42;4.70;;;2.30;;
74749;SDS011;63269;53.330;-6.288;2023-02-28T10:42:00;3.65;;;2.25;;
74749;SDS011;63269;53.330;-6.288;2023-02-28T10:44:25;5.13;;;2.22;;
74749;SDS011;63269;53.330;-6.288;2023-02-28T10:46:51;3.13;;;1.75;;
74749;SDS011;63269;53.330;-6.288;2023-02-28T10:49:26;3.35;;;1.80;;
74749;SDS011;63269;53.330;-6.288;2023-02-28T10:51:56;4.57;;;1.80;;
74749;SDS011;63269;53.330;-6.288;2023-02-28T10:54:29;3.30;;;1.50;;
74749;SDS011;63269;53.330;-6.288;2023-02-28T10:59:44;1.80;;;1.38;;
74749;SDS011;63269;53.330;-6.288;2023-02-28T11:04:59;2.33;;;1.40;;
74749;SDS011;63269;53.330;-6.288;2023-02-28T11:07:25;2.20;;;1.25;;
74749;SDS011;63269;53.330;-6.288;2023-02-28T11:09:53;2.58;;;1.20;;
74749;SDS011;63269;53.330;-6.288;2023-02-28T11:12:31;4.07;;;1.27;;
74749;SDS011;63269;53.330;-6.288;2023-02-28T11:15:04;3.53;;;1.13;;
74749;SDS011;63269;53.330;-6.288;2023-02-28T11:17:39;3.58;;;1.65;;
74749;SDS011;63269;53.330;-6.288;2023-02-28T11:20:06;2.50;;;1.40;;
74749;SDS011;63269;53.330;-6.288;2023-02-28T11:22:43;2.85;;;1.33;;
74749;SDS011;63269;53.330;-6.288;2023-02-28T11:25:21;2.95;;;1.40;;
74749;SDS011;63269;53.330;-6.288;2023-02-28T11:27:50;4.10;;;1.20;;
74749;SDS011;63269;53.330;-6.288;2023-02-28T11:30:24;2.40;;;1.10;;
74749;SDS011;63269;53.330;-6.288;2023-02-28T11:32:52;3.42;;;1.15;;
74749;SDS011;63269;53.330;-6.288;2023-02-28T11:35:21;2.53;;;1.00;;
74749;SDS011;63269;53.330;-6.288;2023-02-28T11:37:51;2.05;;;0.93;;
74749;SDS011;63269;53.330;-6.288;2023-02-28T11:40:18;2.28;;;0.93;;
74749;SDS011;63269;53.330;-6.288;2023-02-28T11:42:57;2.92;;;0.90;;
74749;SDS011;63269;53.330;-6.288;2023-02-28T11:48:21;2.03;;;1.00;;
74749;SDS011;63269;53.330;-6.288;2023-02-28T11:56:29;1.85;;;0.90;;
74749;SDS011;63269;53.330;-6.288;2023-02-28T12:02:28;2.75;;;0.68;;
74749;SDS011;63269;53.330;-6.288;2023-02-28T12:10:27;1.48;;;0.88;;
74749;SDS011;63269;53.330;-6.288;2023-02-28T12:13:01;1.70;;;0.80;;
74749;SDS011;63269;53.330;-6.288;2023-02-28T12:26:44;1.23;;;0.68;;
74749;SDS011;63269;53.330;-6.288;2023-02-28T12:29:24;1.67;;;0.68;;
74749;SDS011;63269;53.330;-6.288;2023-02-28T12:32:09;1.92;;;0.68;;
74749;SDS011;63269;53.330;-6.288;2023-02-28T12:34:39;2.38;;;0.70;;
74749;SDS011;63269;53.330;-6.288;2023-02-28T12:37:14;2.55;;;0.88;;
74749;SDS011;63269;53.330;-6.288;2023-02-28T12:39:45;1.52;;;0.60;;
74749;SDS011;63269;53.330;-6.288;2023-02-28T12:42:17;2.23;;;0.77;;
74749;SDS011;63269;53.330;-6.288;2023-02-28T12:45:36;1.38;;;0.60;;
74749;SDS011;63269;53.330;-6.288;2023-02-28T12:47:44;1.67;;;0.50;;
74749;SDS011;63269;53.330;-6.288;2023-02-28T12:50:13;2.00;;;0.67;;
74749;SDS011;63269;53.330;-6.288;2023-02-28T12:58:36;1.90;;;0.60;;
74749;SDS011;63269;53.330;-6.288;2023-02-28T13:07:19;2.35;;;0.68;;
74749;SDS011;63269;53.330;-6.288;2023-02-28T13:10:05;1.27;;;0.63;;
74749;SDS011;63269;53.330;-6.288;2023-02-28T13:12:32;1.65;;;0.60;;
74749;SDS011;63269;53.330;-6.288;2023-02-28T13:15:16;1.45;;;0.50;;
74749;SDS011;63269;53.330;-6.288;2023-02-28T13:17:49;1.60;;;0.50;;
74749;SDS011;63269;53.330;-6.288;2023-02-28T13:20:18;1.60;;;0.70;;
74749;SDS011;63269;53.330;-6.288;2023-02-28T13:22:47;1.23;;;0.50;;
74749;SDS011;63269;53.330;-6.288;2023-02-28T13:25:59;3.25;;;1.35;;
74749;SDS011;63269;53.330;-6.288;2023-02-28T13:28:07;3.35;;;0.77;;
74749;SDS011;63269;53.330;-6.288;2023-02-28T13:36:01;1.92;;;0.60;;
74749;SDS011;63269;53.330;-6.288;2023-02-28T13:38:34;1.40;;;0.70;;
74749;SDS011;63269;53.330;-6.288;2023-02-28T13:47:20;3.28;;;0.68;;
74749;SDS011;63269;53.330;-6.288;2023-02-28T13:58:03;2.15;;;0.80;;
74749;SDS011;63269;53.330;-6.288;2023-02-28T14:05:22;2.97;;;0.70;;
74749;SDS011;63269;53.330;-6.288;2023-02-28T14:07:56;1.30;;;0.50;;
74749;SDS011;63269;53.330;-6.288;2023-02-28T14:10:27;1.80;;;0.75;;
74749;SDS011;63269;53.330;-6.288;2023-02-28T14:12:57;2.63;;;0.63;;
74749;SDS011;63269;53.330;-6.288;2023-02-28T14:20:48;1.63;;;0.70;;
74749;SDS011;63269;53.330;-6.288;2023-02-28T14:23:20;2.08;;;0.70;;
74749;SDS011;63269;53.330;-6.288;2023-02-28T14:28:43;1.63;;;0.75;;
74749;SDS011;63269;53.330;-6.288;2023-02-28T14:31:35;3.15;;;0.70;;
74749;SDS011;63269;53.330;-6.288;2023-02-28T14:36:42;2.88;;;0.70;;
74749;SDS011;63269;53.330;-6.288;2023-02-28T14:39:17;4.20;;;0.90;;
74749;SDS011;63269;53.330;-6.288;2023-02-28T14:41:46;1.92;;;0.80;;
74749;SDS011;63269;53.330;-6.288;2023-02-28T14:44:22;2.05;;;0.60;;
74749;SDS011;63269;53.330;-6.288;2023-02-28T14:46:49;3.03;;;1.00;;
74749;SDS011;63269;53.330;-6.288;2023-02-28T14:49:36;2.37;;;0.57;;
74749;SDS011;63269;53.330;-6.288;2023-02-28T14:52:17;2.20;;;0.93;;
74749;SDS011;63269;53.330;-6.288;2023-02-28T14:54:45;2.38;;;0.60;;
74749;SDS011;63269;53.330;-6.288;2023-02-28T14:57:23;1.02;;;0.57;;
74749;SDS011;63269;53.330;-6.288;2023-02-28T14:59:56;4.85;;;0.70;;
74749;SDS011;63269;53.330;-6.288;2023-02-28T15:02:24;2.40;;;0.70;;
74749;SDS011;63269;53.330;-6.288;2023-02-28T15:04:54;2.08;;;0.80;;
74749;SDS011;63269;53.330;-6.288;2023-02-28T15:07:21;1.42;;;0.50;;
74749;SDS011;63269;53.330;-6.288;2023-02-28T15:12:39;2.13;;;0.70;;
74749;SDS011;63269;53.330;-6.288;2023-02-28T15:15:14;2.00;;;0.60;;
74749;SDS011;63269;53.330;-6.288;2023-02-28T15:17:42;2.72;;;0.80;;
74749;SDS011;63269;53.330;-6.288;2023-02-28T15:20:14;1.33;;;0.63;;
74749;SDS011;63269;53.330;-6.288;2023-02-28T15:22:41;1.75;;;0.85;;
74749;SDS011;63269;53.330;-6.288;2023-02-28T15:25:07;3.28;;;0.85;;
74749;SDS011;63269;53.330;-6.288;2023-02-28T15:27:41;2.83;;;1.02;;
74749;SDS011;63269;53.330;-6.288;2023-02-28T15:30:15;1.42;;;0.80;;
74749;SDS011;63269;53.330;-6.288;2023-02-28T15:32:43;1.10;;;0.60;;
74749;SDS011;63269;53.330;-6.288;2023-02-28T15:37:56;3.33;;;0.95;;
74749;SDS011;63269;53.330;-6.288;2023-02-28T15:40:30;2.40;;;0.80;;
74749;SDS011;63269;53.330;-6.288;2023-02-28T15:45:28;1.40;;;0.65;;
74749;SDS011;63269;53.330;-6.288;2023-02-28T15:48:00;1.73;;;0.75;;
74749;SDS011;63269;53.330;-6.288;2023-02-28T15:50:27;5.13;;;1.83;;
74749;SDS011;63269;53.330;-6.288;2023-02-28T15:52:53;2.00;;;0.60;;
74749;SDS011;63269;53.330;-6.288;2023-02-28T15:55:19;2.80;;;0.75;;
74749;SDS011;63269;53.330;-6.288;2023-02-28T15:57:48;2.60;;;0.95;;
74749;SDS011;63269;53.330;-6.288;2023-02-28T16:00:18;1.98;;;0.90;;
74749;SDS011;63269;53.330;-6.288;2023-02-28T16:02:45;3.70;;;0.80;;
74749;SDS011;63269;53.330;-6.288;2023-02-28T16:07:40;3.40;;;0.85;;
74749;SDS011;63269;53.330;-6.288;2023-02-28T16:10:09;1.75;;;0.77;;
74749;SDS011;63269;53.330;-6.288;2023-02-28T16:12:37;3.10;;;0.95;;
74749;SDS011;63269;53.330;-6.288;2023-02-28T16:17:51;2.00;;;0.80;;
74749;SDS011;63269;53.330;-6.288;2023-02-28T16:20:21;2.53;;;0.75;;
74749;SDS011;63269;53.330;-6.288;2023-02-28T16:22:49;4.03;;;1.00;;
74749;SDS011;63269;53.330;-6.288;2023-02-28T16:25:16;6.32;;;1.05;;
74749;SDS011;63269;53.330;-6.288;2023-02-28T16:27:44;1.88;;;0.95;;
74749;SDS011;63269;53.330;-6.288;2023-02-28T16:30:24;2.22;;;0.95;;
74749;SDS011;63269;53.330;-6.288;2023-02-28T16:32:51;4.97;;;0.80;;
74749;SDS011;63269;53.330;-6.288;2023-02-28T16:35:19;4.55;;;0.80;;
74749;SDS011;63269;53.330;-6.288;2023-02-28T16:37:45;5.18;;;1.30;;
74749;SDS011;63269;53.330;-6.288;2023-02-28T16:40:18;2.60;;;1.00;;
74749;SDS011;63269;53.330;-6.288;2023-02-28T16:42:46;3.42;;;1.00;;
74749;SDS011;63269;53.330;-6.288;2023-02-28T16:45:18;3.15;;;1.10;;
74749;SDS011;63269;53.330;-6.288;2023-02-28T16:47:46;2.92;;;0.90;;
74749;SDS011;63269;53.330;-6.288;2023-02-28T16:50:13;1.75;;;0.98;;
74749;SDS011;63269;53.330;-6.288;2023-02-28T16:52:41;4.07;;;1.30;;
74749;SDS011;63269;53.330;-6.288;2023-02-28T16:55:07;3.22;;;1.10;;
74749;SDS011;63269;53.330;-6.288;2023-02-28T16:57:33;3.75;;;1.58;;
74749;SDS011;63269;53.330;-6.288;2023-02-28T16:59:58;3.65;;;1.20;;
74749;SDS011;63269;53.330;-6.288;2023-02-28T17:02:24;6.65;;;1.30;;
74749;SDS011;63269;53.330;-6.288;2023-02-28T17:04:49;7.03;;;1.70;;
74749;SDS011;63269;53.330;-6.288;2023-02-28T17:07:15;7.35;;;2.03;;
74749;SDS011;63269;53.330;-6.288;2023-02-28T17:09:41;9.23;;;2.45;;
74749;SDS011;63269;53.330;-6.288;2023-02-28T17:12:08;7.28;;;2.85;;
74749;SDS011;63269;53.330;-6.288;2023-02-28T17:14:34;14.32;;;1.73;;
74749;SDS011;63269;53.330;-6.288;2023-02-28T17:17:00;7.18;;;1.80;;